Nevada City, CA (95959)

10:21 AM PDT on September 30, 2014 (GMT -0700)
Starlite Acres | Change Station
CLOSE
Current Station
Personal Weather Station
Location: Nevada City, CA
Elevation: 2350 ft
Nearby Weather Stations

Elev 2350 ft 39.25 °N, 121.08 °W | Updated 2 seconds ago

Clear
Clear
67.0 °F
Feels Like 67.0 °F
N
2.0
Wind Variable Wind from South
Gusts 3.0 mph

Today
High -- | Low -- °F
--% Chance of Precip.
Yesterday
High -- | Low -- °F
Precip. -- in
6:59 AM 6:48 PM
Waxing Crescent, 38% visible
Pressure 30.03 in
Visibility 10.0 miles
Clouds Clear
Dew Point 54 °F
Humidity 62%
Rainfall 0.00 in
Snow Depth 0 in , 0 in , 1 in
UV 1.4 out of 12
Pollen 5.20 out of 12
Air Quality Not available.
Flu Activity Not available.
METAR KGOO 301700Z AUTO 00000KT 10SM CLR 18/09 A3003 RMK AO1

More Conditions Fewer Conditions

Pressure 30.03 in
Visibility 10.0 miles
Clouds Clear
Dew Point 54 °F
Humidity 62%
Rainfall 0.00 in
Snow Depth 0 in , 0 in , 1 in
UV 1.4 out of 12
Pollen 5.20 out of 12
Air Quality Not available.
Flu Activity Not available.
METAR KGOO 301700Z AUTO 00000KT 10SM CLR 18/09 A3003 RMK AO1

More Conditions Fewer Conditions

10-Day Weather Forecast

Almanac

Astronomy

Sep. 30, 2014 Rise Set
Actual Time 6:59 AM PDT 6:48 PM PDT
Civil Twilight 6:32 AM PDT 7:14 PM PDT
Nautical Twilight 6:01 AM PDT 7:45 PM PDT
Astronomical Twilight 5:30 AM PDT 8:17 PM PDT
Moon 1:10 PM PDT 11:25 PM PDT
Length of Visible Light 12h 42m
Length of Day
11h 48m
Tomorrow will be 2m 31s shorter.
Waxing Crescent, 38% of the Moon is Illuminated
Today
Waxing Crescent
Oct 1
First Quarter
Oct 8
Full
Oct 15
Last Quarter
Oct 23
New

Today's Extremes

State Highs State Lows

Community

WunderPhotos

Upload Photos

1,757,688 photos uploaded!

Nearby

Air Quality

  Air Quality AQ Index Pollutant
Yesterday Moderate
PM2.5
Yesterday Good
OZONE
Tuesday Good
OZONE
Wednesday Moderate
OZONE
Thursday Moderate
OZONE
Friday Moderate
OZONE
Saturday Moderate
OZONE

Snow Depth

Station Depth Elevation
Leavitt Lake 0 in 9400 ft
Fallen Leaf 0 in 6300 ft
Spratt Creek 1 in 6200 ft
Truckee #2 0 in 6400 ft
Sonora Pass 0 in 8800 ft

Earthquake Activity

City Distance Mag. Time & Date
American Canyon, California 102 miles 2.5 12:17 AM PDT
2014-09-29
Minimum magnitude displayed is 2.5.

Coastal Water Temperatures

Place Temperature
No Stations Reporting

Nearby Weather Stations